createdAt,value
2019-06-01T00:02:07.675Z,7.72
2019-06-01T00:04:40.937Z,10.38
2019-06-01T00:07:13.019Z,8.28
2019-06-01T00:09:45.192Z,8.05
2019-06-01T00:12:17.264Z,7.15
2019-06-01T00:14:50.796Z,9.05
2019-06-01T00:17:22.734Z,8.55
2019-06-01T00:19:54.757Z,8.55
2019-06-01T00:22:26.788Z,8.30
2019-06-01T00:24:58.723Z,9.28
2019-06-01T00:27:30.685Z,9.23
2019-06-01T00:30:02.905Z,8.13
2019-06-01T00:32:36.004Z,8.93
2019-06-01T00:35:08.272Z,9.25
2019-06-01T00:37:41.363Z,8.25
2019-06-01T00:40:14.664Z,9.50
2019-06-01T00:42:46.673Z,10.10
2019-06-01T00:45:18.663Z,8.90
2019-06-01T00:47:50.933Z,9.43
2019-06-01T00:50:23.051Z,10.43
2019-06-01T00:52:55.111Z,10.80
2019-06-01T00:55:27.065Z,10.30
2019-06-01T00:57:58.947Z,10.48
2019-06-01T01:00:43.274Z,11.15
2019-06-01T01:03:04.700Z,10.85
2019-06-01T01:05:36.694Z,10.28
2019-06-01T01:08:08.655Z,10.00
2019-06-01T01:10:40.725Z,9.85
2019-06-01T01:13:17.121Z,8.70
2019-06-01T01:16:25.016Z,9.60
2019-06-01T01:18:37.972Z,9.23
2019-06-01T01:21:10.138Z,8.80
2019-06-01T01:23:42.038Z,10.10
2019-06-01T01:26:14.013Z,9.55
2019-06-01T01:28:46.699Z,8.63
2019-06-01T01:31:18.705Z,8.00
2019-06-01T01:33:51.399Z,8.45
2019-06-01T01:36:23.559Z,8.28
2019-06-01T01:38:56.254Z,7.95
2019-06-01T01:41:28.392Z,8.35
2019-06-01T01:44:00.385Z,8.70
2019-06-01T01:46:32.540Z,7.37
2019-06-01T01:49:04.509Z,7.72
2019-06-01T01:51:36.583Z,7.30
2019-06-01T01:54:08.623Z,7.33
2019-06-01T01:56:40.677Z,8.08
2019-06-01T01:59:12.560Z,8.63
2019-06-01T02:01:44.610Z,9.20
2019-06-01T02:04:16.595Z,8.88
2019-06-01T02:06:48.508Z,9.28
2019-06-01T02:09:20.475Z,10.05
2019-06-01T02:11:53.447Z,8.90
2019-06-01T02:14:25.555Z,8.20
2019-06-01T02:16:58.126Z,8.20
2019-06-01T02:19:30.163Z,8.48
2019-06-01T02:22:03.534Z,8.55
2019-06-01T02:24:35.654Z,8.48
2019-06-01T02:27:08.653Z,7.92
2019-06-01T02:29:40.710Z,8.78
2019-06-01T02:32:12.692Z,8.40
2019-06-01T02:34:44.574Z,8.35
2019-06-01T02:37:17.719Z,8.28
2019-06-01T02:39:49.759Z,7.90
2019-06-01T02:42:21.759Z,6.87
2019-06-01T02:44:55.073Z,8.65
2019-06-01T02:47:27.182Z,8.58
2019-06-01T02:49:59.421Z,9.08
2019-06-01T02:52:31.643Z,9.98
2019-06-01T02:55:04.974Z,9.75
2019-06-01T02:57:38.229Z,7.90
2019-06-01T03:00:10.967Z,7.22
2019-06-01T03:02:43.908Z,8.05
2019-06-01T03:05:15.857Z,7.25
2019-06-01T03:07:50.328Z,7.83
2019-06-01T03:10:22.314Z,9.63
2019-06-01T03:12:56.367Z,8.50
2019-06-01T03:15:31.238Z,9.63
2019-06-01T03:18:05.669Z,8.40
2019-06-01T03:20:40.007Z,9.15
2019-06-01T03:23:13.972Z,8.43
2019-06-01T03:25:50.110Z,9.13
2019-06-01T03:28:25.093Z,9.78
2019-06-01T03:30:57.068Z,9.45
2019-06-01T03:33:29.131Z,9.10
2019-06-01T03:36:01.023Z,9.43
2019-06-01T03:38:33.372Z,9.20
2019-06-01T03:41:06.143Z,8.88
2019-06-01T03:43:38.204Z,9.25
2019-06-01T03:46:10.182Z,9.58
2019-06-01T03:48:42.155Z,7.50
2019-06-01T03:51:14.006Z,8.30
2019-06-01T03:53:45.912Z,9.15
2019-06-01T03:56:17.798Z,9.80
2019-06-01T03:58:50.950Z,10.95
2019-06-01T04:01:22.928Z,10.10
2019-06-01T04:03:54.999Z,10.90
2019-06-01T04:06:26.971Z,10.43
2019-06-01T04:08:58.809Z,9.80
2019-06-01T04:11:31.111Z,9.63
2019-06-01T04:14:03.845Z,9.33
2019-06-01T04:16:35.894Z,11.45
2019-06-01T04:19:08.077Z,13.13
2019-06-01T04:21:40.220Z,11.85
2019-06-01T04:24:12.483Z,10.28
2019-06-01T04:26:44.552Z,10.63
2019-06-01T04:29:17.254Z,12.33
2019-06-01T04:31:49.502Z,11.60
2019-06-01T04:34:21.570Z,12.28
2019-06-01T04:36:53.533Z,12.53
2019-06-01T04:39:25.565Z,12.20
2019-06-01T04:41:57.471Z,12.93
2019-06-01T04:44:29.398Z,13.38
2019-06-01T04:47:01.436Z,13.15
2019-06-01T04:49:33.523Z,13.08
2019-06-01T04:52:06.660Z,13.35
2019-06-01T04:54:38.739Z,11.75
2019-06-01T04:57:11.019Z,12.45
2019-06-01T04:59:43.281Z,12.05
2019-06-01T05:02:15.342Z,12.33
2019-06-01T05:04:47.354Z,12.37
2019-06-01T05:07:19.335Z,12.73
2019-06-01T05:09:51.386Z,13.28
2019-06-01T05:12:23.379Z,12.65
2019-06-01T05:14:55.375Z,12.10
2019-06-01T05:17:27.262Z,12.98
2019-06-01T05:19:59.181Z,14.30
2019-06-01T05:22:31.077Z,14.87
2019-06-01T05:25:03.140Z,13.32
2019-06-01T05:27:35.237Z,13.03
2019-06-01T05:30:09.476Z,12.78
2019-06-01T05:32:41.468Z,12.15
2019-06-01T05:35:13.818Z,12.28
2019-06-01T05:37:45.824Z,12.93
2019-06-01T05:40:19.754Z,12.85
2019-06-01T05:42:51.904Z,13.38
2019-06-01T05:45:23.939Z,13.90
2019-06-01T05:47:55.904Z,14.80
2019-06-01T05:50:27.908Z,13.43
2019-06-01T05:52:59.873Z,13.75
2019-06-01T05:55:31.901Z,12.43
2019-06-01T05:58:03.924Z,13.50
2019-06-01T06:00:42.030Z,13.58
2019-06-01T06:03:16.185Z,12.53
2019-06-01T06:05:47.829Z,12.60
2019-06-01T06:08:20.130Z,11.93
2019-06-01T06:10:52.231Z,11.90
2019-06-01T06:13:24.137Z,11.85
2019-06-01T06:15:56.107Z,11.88
2019-06-01T06:18:28.142Z,10.98
2019-06-01T06:21:00.342Z,11.25
2019-06-01T06:23:32.397Z,11.10
2019-06-01T06:26:04.403Z,11.35
2019-06-01T06:28:36.473Z,9.95
2019-06-01T06:31:08.529Z,8.88
2019-06-01T06:33:53.352Z,9.63
2019-06-01T06:36:15.277Z,10.72
2019-06-01T06:38:47.564Z,9.93
2019-06-01T06:41:20.328Z,7.85
2019-06-01T06:43:52.294Z,8.10
2019-06-01T06:46:24.890Z,7.35
2019-06-01T06:48:56.821Z,7.17
2019-06-01T06:51:28.889Z,7.37
2019-06-01T06:54:00.846Z,6.85
2019-06-01T06:56:32.835Z,6.72
2019-06-01T06:59:05.872Z,6.25
2019-06-01T07:01:37.958Z,7.08
2019-06-01T07:04:13.051Z,7.10
2019-06-01T07:06:43.785Z,6.12
2019-06-01T07:09:15.743Z,5.05
2019-06-01T07:11:47.800Z,5.42
2019-06-01T07:14:19.743Z,5.62
2019-06-01T07:16:52.408Z,5.00
2019-06-01T07:19:25.605Z,5.35
2019-06-01T07:21:57.642Z,5.17
2019-06-01T07:24:29.628Z,5.22
2019-06-01T07:27:01.605Z,5.05
2019-06-01T07:29:33.557Z,5.10
2019-06-01T07:32:05.706Z,5.60
2019-06-01T07:34:42.218Z,5.95
2019-06-01T07:37:11.690Z,6.53
2019-06-01T07:39:43.953Z,7.08
2019-06-01T07:42:15.957Z,5.70
2019-06-01T07:44:47.832Z,5.05
2019-06-01T07:47:20.778Z,5.28
2019-06-01T07:49:52.930Z,5.45
2019-06-01T07:52:26.119Z,5.55
2019-06-01T07:54:58.240Z,5.10
2019-06-01T07:57:31.684Z,5.17
2019-06-01T08:00:06.353Z,5.62
2019-06-01T08:02:38.479Z,4.45
2019-06-01T08:05:10.542Z,5.30
2019-06-01T08:07:42.518Z,5.00
2019-06-01T08:10:14.668Z,4.55
2019-06-01T08:12:46.645Z,3.70
2019-06-01T08:15:18.708Z,5.03
2019-06-01T08:17:52.231Z,4.42
2019-06-01T08:20:24.361Z,4.85
2019-06-01T08:22:56.283Z,4.08
2019-06-01T08:25:28.642Z,4.70
2019-06-01T08:28:00.766Z,4.53
2019-06-01T08:30:32.793Z,5.12
2019-06-01T08:33:04.908Z,5.47
2019-06-01T08:35:36.848Z,4.15
2019-06-01T08:38:08.826Z,4.92
2019-06-01T08:40:40.633Z,4.72
2019-06-01T08:43:13.927Z,4.72
2019-06-01T08:45:46.988Z,5.10
2019-06-01T08:48:19.314Z,4.65
2019-06-01T08:50:51.282Z,4.42
2019-06-01T08:53:23.817Z,4.15
2019-06-01T08:55:55.838Z,4.80
2019-06-01T08:58:28.195Z,4.87
2019-06-01T09:01:00.307Z,4.03
2019-06-01T09:03:33.798Z,4.28
2019-06-01T09:06:06.345Z,3.60
2019-06-01T09:08:38.407Z,3.50
2019-06-01T09:11:10.306Z,3.50
2019-06-01T09:13:42.376Z,3.90
2019-06-01T09:16:14.380Z,3.87
2019-06-01T09:18:46.463Z,3.65
2019-06-01T09:21:18.340Z,3.50
2019-06-01T09:23:50.407Z,4.25
2019-06-01T09:26:22.358Z,3.62
2019-06-01T09:28:54.285Z,4.15
2019-06-01T09:31:26.447Z,3.77
2019-06-01T09:33:58.546Z,4.30
2019-06-01T09:36:30.608Z,2.80
2019-06-01T09:39:02.567Z,2.27
2019-06-01T09:41:36.625Z,3.65
2019-06-01T09:44:09.054Z,4.12
2019-06-01T09:46:41.007Z,3.67
2019-06-01T09:49:13.086Z,4.00
2019-06-01T09:51:45.061Z,3.30
2019-06-01T09:54:17.110Z,3.00
2019-06-01T09:56:49.173Z,3.17
2019-06-01T09:59:21.168Z,2.72
2019-06-01T10:01:53.158Z,2.95
2019-06-01T10:04:25.249Z,3.47
2019-06-01T10:06:57.159Z,3.33
2019-06-01T10:09:29.502Z,2.98
2019-06-01T10:12:01.498Z,3.90
2019-06-01T10:14:34.184Z,3.30
2019-06-01T10:17:06.128Z,4.12
2019-06-01T10:19:38.913Z,4.62
2019-06-01T10:22:10.990Z,3.72
2019-06-01T10:24:43.160Z,4.55
2019-06-01T10:27:17.102Z,3.95
2019-06-01T10:29:49.151Z,4.80
2019-06-01T10:32:21.039Z,4.30
2019-06-01T10:34:53.287Z,9.58
2019-06-01T10:37:25.190Z,13.85
2019-06-01T10:39:58.442Z,6.97
2019-06-01T10:42:32.738Z,5.37
2019-06-01T10:47:29.513Z,4.25
2019-06-01T10:50:01.585Z,4.47
2019-06-01T10:52:34.486Z,4.22
2019-06-01T10:55:08.154Z,8.48
2019-06-01T10:57:40.636Z,5.25
2019-06-01T11:00:14.753Z,6.25
2019-06-01T11:02:47.060Z,4.70
2019-06-01T11:05:19.008Z,4.80
2019-06-01T11:07:51.050Z,4.85
2019-06-01T11:10:23.015Z,4.62
2019-06-01T11:12:54.991Z,4.92
2019-06-01T11:15:28.361Z,4.25
2019-06-01T11:18:00.593Z,4.70
2019-06-01T11:20:33.029Z,4.53
2019-06-01T11:23:05.121Z,5.15
2019-06-01T11:25:37.586Z,4.47
2019-06-01T11:28:09.630Z,4.50
2019-06-01T11:30:41.892Z,4.62
2019-06-01T11:33:13.794Z,4.22
2019-06-01T11:35:45.759Z,4.10
2019-06-01T11:38:20.180Z,4.12
2019-06-01T11:40:52.115Z,3.92
2019-06-01T11:43:24.109Z,4.70
2019-06-01T11:45:55.990Z,4.10
2019-06-01T11:48:27.906Z,4.17
2019-06-01T11:50:59.836Z,4.60
2019-06-01T11:53:31.666Z,3.52
2019-06-01T11:56:03.632Z,4.28
2019-06-01T11:58:35.683Z,3.77
2019-06-01T12:01:07.978Z,3.95
2019-06-01T12:03:40.118Z,4.22
2019-06-01T12:06:12.088Z,5.28
2019-06-01T12:08:44.135Z,4.12
2019-06-01T12:11:16.062Z,3.85
2019-06-01T12:13:47.911Z,3.65
2019-06-01T12:16:19.890Z,4.08
2019-06-01T12:18:51.939Z,4.05
2019-06-01T12:21:23.874Z,3.30
2019-06-01T12:23:55.885Z,3.45
2019-06-01T12:26:27.675Z,3.02
2019-06-01T12:29:00.737Z,3.35
2019-06-01T12:31:33.827Z,3.58
2019-06-01T12:34:05.891Z,2.92
2019-06-01T12:36:39.379Z,2.80
2019-06-01T12:39:16.350Z,3.42
2019-06-01T12:42:02.637Z,3.47
2019-06-01T12:44:34.953Z,3.10
2019-06-01T12:47:12.624Z,2.98
2019-06-01T12:49:46.208Z,3.50
2019-06-01T12:52:18.352Z,3.17
2019-06-01T12:54:50.254Z,3.42
2019-06-01T12:57:22.071Z,3.33
2019-06-01T12:59:53.997Z,3.35
2019-06-01T13:02:26.020Z,3.52
2019-06-01T13:04:57.941Z,2.67
2019-06-01T13:07:29.892Z,2.72
2019-06-01T13:10:03.141Z,2.77
2019-06-01T13:12:35.099Z,2.72
2019-06-01T13:15:09.696Z,2.65
2019-06-01T13:17:41.705Z,2.67
2019-06-01T13:20:13.817Z,2.50
2019-06-01T13:22:46.267Z,2.20
2019-06-01T13:25:18.262Z,2.42
2019-06-01T13:27:50.659Z,2.80
2019-06-01T13:30:22.781Z,2.80
2019-06-01T13:32:54.668Z,3.10
2019-06-01T13:35:26.590Z,2.98
2019-06-01T13:38:11.964Z,2.47
2019-06-01T13:40:33.580Z,2.50
2019-06-01T13:43:05.722Z,2.52
2019-06-01T13:45:37.634Z,2.70
2019-06-01T13:48:09.523Z,2.65
2019-06-01T13:50:41.595Z,2.25
2019-06-01T13:53:13.555Z,2.85
2019-06-01T13:55:46.055Z,2.67
2019-06-01T13:58:18.005Z,2.62
2019-06-01T14:00:51.555Z,2.52
2019-06-01T14:03:23.536Z,2.50
2019-06-01T14:05:55.824Z,2.60
2019-06-01T14:08:29.225Z,2.85
2019-06-01T14:11:01.510Z,2.55
2019-06-01T14:13:33.471Z,3.15
2019-06-01T14:16:05.601Z,2.83
2019-06-01T14:18:37.534Z,3.33
2019-06-01T14:21:09.449Z,2.70
2019-06-01T14:23:41.426Z,2.70
2019-06-01T14:26:13.396Z,2.80
2019-06-01T14:28:46.411Z,2.45
2019-06-01T14:31:18.308Z,2.45
2019-06-01T14:33:50.483Z,2.70
2019-06-01T14:36:24.136Z,2.40
2019-06-01T14:38:57.161Z,2.58
2019-06-01T14:41:29.857Z,2.35
2019-06-01T14:44:01.790Z,2.20
2019-06-01T14:46:33.691Z,2.15
2019-06-01T14:49:05.705Z,2.30
2019-06-01T14:51:37.713Z,2.55
2019-06-01T14:54:09.676Z,2.80
2019-06-01T14:56:41.522Z,2.83
2019-06-01T14:59:13.415Z,3.10
2019-06-01T15:01:45.417Z,3.02
2019-06-01T15:04:17.386Z,2.95
2019-06-01T15:06:50.198Z,2.87
2019-06-01T15:09:22.327Z,2.45
2019-06-01T15:11:54.490Z,1.77
2019-06-01T15:14:26.479Z,2.70
2019-06-01T15:16:58.384Z,1.80
2019-06-01T15:19:30.260Z,1.90
2019-06-01T15:22:03.521Z,2.00
2019-06-01T15:24:35.587Z,2.30
2019-06-01T15:27:10.531Z,1.57
2019-06-01T15:29:42.593Z,1.70
2019-06-01T15:32:16.990Z,1.80
2019-06-01T15:34:48.837Z,1.87
2019-06-01T15:37:23.491Z,1.67
2019-06-01T15:39:56.650Z,4.58
2019-06-01T15:42:28.801Z,1.92
2019-06-01T15:45:01.495Z,1.90
2019-06-01T15:47:36.173Z,2.25
2019-06-01T15:50:12.380Z,1.80
2019-06-01T15:52:44.330Z,2.00
2019-06-01T15:55:27.499Z,3.10
2019-06-01T15:58:01.275Z,2.30
2019-06-01T16:00:33.177Z,2.30
2019-06-01T16:03:07.299Z,2.52
2019-06-01T16:05:40.913Z,1.95
2019-06-01T16:08:12.945Z,2.27
2019-06-01T16:10:44.844Z,2.20
2019-06-01T16:13:16.931Z,2.30
2019-06-01T16:15:48.807Z,1.90
2019-06-01T16:18:20.781Z,1.57
2019-06-01T16:20:53.831Z,1.50
2019-06-01T16:23:26.569Z,1.65
2019-06-01T16:26:15.740Z,1.50
2019-06-01T16:28:43.545Z,1.60
2019-06-01T16:31:18.183Z,1.45
2019-06-01T16:33:59.108Z,1.45
2019-06-01T16:36:33.002Z,1.50
2019-06-01T16:39:10.458Z,1.87
2019-06-01T16:41:42.492Z,1.40
2019-06-01T16:44:30.051Z,1.70
2019-06-01T16:47:02.957Z,1.72
2019-06-01T16:49:35.512Z,1.70
2019-06-01T16:52:07.804Z,1.80
2019-06-01T16:54:39.793Z,1.80
2019-06-01T16:57:11.687Z,2.47
2019-06-01T16:59:43.738Z,2.50
2019-06-01T17:02:16.949Z,1.62
2019-06-01T17:04:53.077Z,1.67
2019-06-01T17:07:25.047Z,1.57
2019-06-01T17:09:57.133Z,2.37
2019-06-01T17:12:32.674Z,1.82
2019-06-01T17:15:07.160Z,2.00
2019-06-01T17:17:39.049Z,1.65
2019-06-01T17:20:40.454Z,1.80
2019-06-01T17:23:25.941Z,1.75
2019-06-01T17:25:46.436Z,2.10
2019-06-01T17:28:18.435Z,2.20
2019-06-01T17:30:50.554Z,2.55
2019-06-01T17:33:22.526Z,2.20
2019-06-01T17:35:55.445Z,2.20
2019-06-01T17:38:29.458Z,2.00
2019-06-01T17:41:02.193Z,1.98
2019-06-01T17:43:34.195Z,2.75
2019-06-01T17:46:07.272Z,3.25
2019-06-01T17:48:40.321Z,3.40
2019-06-01T17:51:12.786Z,3.35
2019-06-01T17:53:44.904Z,3.47
2019-06-01T17:56:18.501Z,4.53
2019-06-01T17:58:50.572Z,4.80
2019-06-01T18:01:22.631Z,3.65
2019-06-01T18:03:54.659Z,2.95
2019-06-01T18:06:26.625Z,3.45
2019-06-01T18:08:58.663Z,2.75
2019-06-01T18:11:30.641Z,3.75
2019-06-01T18:14:02.520Z,4.30
2019-06-01T18:16:34.426Z,3.80
2019-06-01T18:19:06.451Z,3.98
2019-06-01T18:21:38.701Z,3.50
2019-06-01T18:24:11.046Z,4.28
2019-06-01T18:26:43.197Z,4.92
2019-06-01T18:29:15.148Z,7.45
2019-06-01T18:31:46.991Z,7.35
2019-06-01T18:34:18.957Z,7.78
2019-06-01T18:36:50.874Z,9.63
2019-06-01T18:39:22.827Z,9.43
2019-06-01T18:41:54.931Z,8.55
2019-06-01T18:44:26.956Z,8.10
2019-06-01T18:49:50.715Z,7.65
2019-06-01T18:52:23.089Z,7.72
2019-06-01T18:54:55.156Z,9.15
2019-06-01T18:57:27.248Z,10.45
2019-06-01T18:59:59.294Z,13.68
2019-06-01T19:02:31.381Z,23.83
2019-06-01T19:05:04.855Z,28.98
2019-06-01T19:07:38.228Z,24.63
2019-06-01T19:10:14.122Z,24.55
2019-06-01T19:12:46.625Z,21.10
2019-06-01T19:15:27.588Z,20.27
2019-06-01T19:17:52.842Z,15.95
2019-06-01T19:20:24.819Z,19.17
2019-06-01T19:22:57.152Z,21.05
2019-06-01T19:25:29.343Z,20.05
2019-06-01T19:28:02.874Z,17.67
2019-06-01T19:30:42.096Z,15.53
2019-06-01T19:33:17.809Z,21.42
2019-06-01T19:35:49.971Z,23.05
2019-06-01T19:38:22.867Z,15.80
2019-06-01T19:40:54.818Z,14.40
2019-06-01T19:43:26.878Z,15.10
2019-06-01T19:45:58.819Z,13.62
2019-06-01T19:48:30.671Z,12.35
2019-06-01T19:51:02.690Z,9.73
2019-06-01T19:53:34.597Z,7.35
2019-06-01T19:56:06.500Z,7.22
2019-06-01T19:58:38.505Z,8.10
2019-06-01T20:01:10.389Z,7.47
2019-06-01T20:03:42.384Z,11.73
2019-06-01T20:06:14.750Z,15.15
2019-06-01T20:08:46.857Z,15.60
2019-06-01T20:11:19.373Z,12.28
2019-06-01T20:13:51.659Z,13.15
2019-06-01T20:16:23.921Z,10.30
2019-06-01T20:18:56.402Z,15.13
2019-06-01T20:21:28.803Z,24.27
2019-06-01T20:24:01.598Z,23.60
2019-06-01T20:26:42.023Z,18.65
2019-06-01T20:29:08.010Z,15.75
2019-06-01T20:31:40.051Z,15.50
2019-06-01T20:34:12.717Z,13.65
2019-06-01T20:36:45.643Z,12.98
2019-06-01T20:39:18.298Z,10.30
2019-06-01T20:41:50.410Z,9.48
2019-06-01T20:44:23.022Z,8.80
2019-06-01T20:46:55.170Z,8.25
2019-06-01T20:49:27.135Z,7.53
2019-06-01T20:51:59.025Z,9.63
2019-06-01T20:54:31.065Z,8.53
2019-06-01T20:57:02.967Z,8.03
2019-06-01T20:59:34.991Z,8.90
2019-06-01T21:02:07.157Z,9.20
2019-06-01T21:04:39.063Z,9.63
2019-06-01T21:07:11.112Z,11.35
2019-06-01T21:09:43.054Z,12.73
2019-06-01T21:12:16.592Z,10.75
2019-06-01T21:14:48.499Z,10.98
2019-06-01T21:17:20.732Z,11.10
2019-06-01T21:19:52.762Z,11.12
2019-06-01T21:22:24.981Z,10.30
2019-06-01T21:24:56.951Z,9.35
2019-06-01T21:27:28.782Z,8.78
2019-06-01T21:30:00.705Z,8.30
2019-06-01T21:32:32.731Z,8.15
2019-06-01T21:35:05.425Z,7.80
2019-06-01T21:37:37.457Z,7.90
2019-06-01T21:40:10.439Z,8.60
2019-06-01T21:43:00.384Z,12.60
2019-06-01T21:45:17.554Z,12.45
2019-06-01T21:47:49.615Z,18.25
2019-06-01T21:50:22.097Z,17.73
2019-06-01T21:52:54.154Z,17.27
2019-06-01T21:55:26.390Z,18.40
2019-06-01T21:57:58.312Z,15.50
2019-06-01T22:00:34.988Z,17.10
2019-06-01T22:03:10.447Z,17.57
2019-06-01T22:05:44.081Z,16.15
2019-06-01T22:11:19.371Z,14.18
2019-06-01T22:13:56.696Z,15.25
2019-06-01T22:16:32.629Z,14.30
2019-06-01T22:19:04.768Z,13.62
2019-06-01T22:21:51.342Z,13.93
2019-06-01T22:24:23.833Z,13.45
2019-06-01T22:30:02.282Z,13.60
2019-06-01T22:32:34.321Z,13.78
2019-06-01T22:35:09.198Z,14.03
2019-06-01T22:37:42.604Z,13.18
2019-06-01T22:40:14.761Z,13.80
2019-06-01T22:42:49.368Z,14.30
2019-06-01T22:45:22.091Z,12.73
2019-06-01T22:47:54.156Z,13.53
2019-06-01T22:50:27.001Z,13.13
2019-06-01T22:52:59.063Z,13.05
2019-06-01T22:55:32.337Z,12.55
2019-06-01T22:58:04.697Z,12.15
2019-06-01T23:00:36.715Z,11.83
2019-06-01T23:03:08.777Z,12.00
2019-06-01T23:05:40.753Z,11.93
2019-06-01T23:08:12.855Z,13.00
2019-06-01T23:10:44.805Z,11.83
2019-06-01T23:13:16.807Z,11.95
2019-06-01T23:15:49.669Z,11.08
2019-06-01T23:18:21.765Z,11.38
2019-06-01T23:20:53.769Z,11.70
2019-06-01T23:23:26.034Z,11.48
2019-06-01T23:25:58.191Z,11.83
2019-06-01T23:28:30.452Z,10.93
2019-06-01T23:31:02.510Z,10.93
2019-06-01T23:33:34.579Z,13.65
2019-06-01T23:36:06.613Z,12.95
2019-06-01T23:38:38.659Z,12.45
2019-06-01T23:41:10.545Z,15.13
2019-06-01T23:43:42.543Z,13.05
2019-06-01T23:46:14.689Z,15.08
2019-06-01T23:48:46.655Z,16.17
2019-06-01T23:51:18.925Z,16.75
2019-06-01T23:53:50.931Z,16.30
2019-06-01T23:56:23.630Z,15.58
2019-06-01T23:58:55.635Z,14.45
